Smithville, Indiana
Current Conditions -  °F | °C
As of 4:53 AM on Sunday 23 Nov 2014 (Local Time) from KBMG Reporting Station
Broken Clouds Broken Clouds  
Wind Chill: 50°   Ceiling: 10000
Heat Index: 50°   Visibility: 10mi
Dew Point: 39°   Wind: 7mph
Humidity: 66%   Direction: 170°S
Pressure: 29.92"   Gusts: NA
Location:  39.07°N, 86.51°W
Report Text: KBMG 230953Z 17006KT 10SM FEW034 SCT085 BKN100 10/04 A2992 RMK AO2 SLP132 T01000039
Loading
Personal Weather Stations






























Interactive Weather Map New forecast layout! Learn more

10-Day Weather Forecast

Advertisements
Track Severe Weather on mobile